createdAt,value
2023-10-21T04:32:32.009Z,1.55
2023-10-21T04:35:00.260Z,1.83
2023-10-21T04:37:27.353Z,1.40
2023-10-21T04:39:54.585Z,1.90
2023-10-21T04:42:21.359Z,2.13
2023-10-21T04:44:48.074Z,2.60
2023-10-21T04:47:16.956Z,3.22
2023-10-21T04:49:46.330Z,2.33
2023-10-21T04:52:13.894Z,1.85
2023-10-21T04:54:40.556Z,1.67
2023-10-21T04:57:07.619Z,1.92
2023-10-21T04:59:34.851Z,1.98
2023-10-21T05:02:01.725Z,2.20
2023-10-21T05:04:28.820Z,1.70
2023-10-21T05:06:55.567Z,1.50
2023-10-21T05:09:22.552Z,1.80
2023-10-21T05:11:49.308Z,1.67
2023-10-21T05:14:16.057Z,1.10
2023-10-21T05:16:42.846Z,1.20
2023-10-21T05:19:09.645Z,1.13
2023-10-21T05:21:36.349Z,1.30
2023-10-21T05:24:03.181Z,1.15
2023-10-21T05:26:30.396Z,1.00
2023-10-21T05:28:59.153Z,1.05
2023-10-21T05:31:26.096Z,0.98
2023-10-21T05:33:53.313Z,0.90
2023-10-21T05:36:20.133Z,1.00
2023-10-21T05:38:47.992Z,0.88
2023-10-21T05:41:14.713Z,0.98
2023-10-21T05:43:41.446Z,0.95
2023-10-21T05:46:08.209Z,0.70
2023-10-21T05:48:35.069Z,0.60
2023-10-21T05:51:02.897Z,0.80
2023-10-21T05:53:30.383Z,0.43
2023-10-21T05:55:58.045Z,0.43
2023-10-21T05:58:26.981Z,0.60
2023-10-21T06:00:56.850Z,0.50
2023-10-21T06:03:24.399Z,0.40
2023-10-21T06:05:51.250Z,0.40
2023-10-21T06:08:17.957Z,0.70
2023-10-21T06:10:45.506Z,1.20
2023-10-21T06:13:12.284Z,1.58
2023-10-21T06:15:39.338Z,1.30
2023-10-21T06:18:06.528Z,0.40
2023-10-21T06:20:33.350Z,0.40
2023-10-21T06:23:00.172Z,0.40
2023-10-21T06:25:26.924Z,0.30
2023-10-21T06:27:53.702Z,0.52
2023-10-21T06:30:20.515Z,0.43
2023-10-21T06:32:47.489Z,0.43
2023-10-21T06:35:14.166Z,0.30
2023-10-21T06:37:40.831Z,0.40
2023-10-21T06:40:08.137Z,0.47
2023-10-21T06:42:34.867Z,0.50
2023-10-21T06:45:01.750Z,0.40
2023-10-21T06:47:28.481Z,0.55
2023-10-21T06:49:55.276Z,0.43
2023-10-21T06:52:22.070Z,0.50
2023-10-21T06:54:49.208Z,0.50
2023-10-21T06:57:21.718Z,0.55
2023-10-21T06:59:49.067Z,0.60
2023-10-21T07:02:15.799Z,0.70
2023-10-21T07:04:42.689Z,0.80
2023-10-21T07:07:11.284Z,0.43
2023-10-21T07:09:40.911Z,0.90
2023-10-21T07:12:07.830Z,1.27
2023-10-21T07:14:34.894Z,1.70
2023-10-21T07:17:01.775Z,2.53
2023-10-21T07:19:31.014Z,2.97
2023-10-21T07:21:57.692Z,2.50
2023-10-21T07:24:24.449Z,2.00
2023-10-21T07:26:51.659Z,2.17
2023-10-21T07:29:18.387Z,2.10
2023-10-21T07:31:45.278Z,1.55
2023-10-21T07:34:14.736Z,1.70
2023-10-21T07:36:41.484Z,1.58
2023-10-21T07:39:08.502Z,1.60
2023-10-21T07:41:35.303Z,1.20
2023-10-21T07:44:02.139Z,0.70
2023-10-21T07:46:29.739Z,0.90
2023-10-21T07:48:57.867Z,0.70
2023-10-21T07:51:32.172Z,0.60
2023-10-21T07:53:59.063Z,1.25
2023-10-21T07:56:25.908Z,0.40
2023-10-21T07:58:52.682Z,0.60
2023-10-21T08:01:20.270Z,0.50
2023-10-21T08:03:47.100Z,0.52
2023-10-21T08:06:15.886Z,0.70
2023-10-21T08:08:43.860Z,0.40
2023-10-21T08:11:10.954Z,0.32
2023-10-21T08:13:38.094Z,0.45
2023-10-21T08:16:05.762Z,0.63
2023-10-21T08:18:32.506Z,0.35
2023-10-21T08:20:59.384Z,0.63
2023-10-21T08:23:26.102Z,1.63
2023-10-21T08:25:52.890Z,1.10
2023-10-21T08:28:19.696Z,1.17
2023-10-21T08:30:46.970Z,1.05
2023-10-21T08:33:14.923Z,1.10
2023-10-21T08:35:42.143Z,1.10
2023-10-21T08:38:08.921Z,1.30
2023-10-21T08:40:40.039Z,1.10
2023-10-21T08:43:07.147Z,0.80
2023-10-21T08:45:34.281Z,1.40
2023-10-21T08:48:02.904Z,2.33
2023-10-21T08:50:36.876Z,0.40
2023-10-21T08:53:06.283Z,0.95
2023-10-21T08:55:36.814Z,0.90
2023-10-21T08:58:04.127Z,1.10
2023-10-21T09:00:30.906Z,0.60
2023-10-21T09:02:57.854Z,0.70
2023-10-21T09:05:24.751Z,0.60
2023-10-21T09:07:51.851Z,0.70
2023-10-21T09:10:20.282Z,0.80
2023-10-21T09:12:47.089Z,0.63
2023-10-21T09:15:14.135Z,0.38
2023-10-21T09:17:46.740Z,0.80
2023-10-21T09:20:18.372Z,0.70
2023-10-21T09:22:56.378Z,1.00
2023-10-21T09:25:23.870Z,1.00
2023-10-21T09:27:56.789Z,0.70
2023-10-21T09:30:26.053Z,0.70
2023-10-21T09:33:03.716Z,0.60
2023-10-21T09:35:36.856Z,0.40
2023-10-21T09:38:17.996Z,0.30
2023-10-21T09:40:45.071Z,0.50
2023-10-21T09:43:15.109Z,0.40
2023-10-21T09:45:44.695Z,0.80
2023-10-21T09:48:15.504Z,2.00
2023-10-21T09:50:54.747Z,0.60
2023-10-21T09:53:25.545Z,0.50
2023-10-21T09:55:54.371Z,0.40
2023-10-21T09:58:23.156Z,0.57
2023-10-21T10:00:50.041Z,0.45
2023-10-21T10:03:17.895Z,0.52
2023-10-21T10:05:46.245Z,0.60
2023-10-21T10:08:13.175Z,0.50
2023-10-21T10:10:41.147Z,0.30
2023-10-21T10:13:13.052Z,0.52
2023-10-21T10:15:40.978Z,1.30
2023-10-21T10:18:19.111Z,0.70
2023-10-21T10:20:49.602Z,0.13
2023-10-21T10:23:16.625Z,0.13
2023-10-21T10:25:51.200Z,0.30
2023-10-21T10:28:18.970Z,0.30
2023-10-21T10:30:47.022Z,0.22
2023-10-21T10:33:17.769Z,0.28
2023-10-21T10:35:48.963Z,0.17
2023-10-21T10:38:26.504Z,0.30
2023-10-21T10:41:02.338Z,0.20
2023-10-21T10:43:29.844Z,0.38
2023-10-21T10:45:57.451Z,0.35
2023-10-21T10:48:24.614Z,0.30
2023-10-21T10:51:02.003Z,0.40
2023-10-21T10:53:29.258Z,0.30
2023-10-21T10:55:55.996Z,0.40
2023-10-21T10:58:24.436Z,0.68
2023-10-21T11:00:52.701Z,0.40
2023-10-21T11:03:28.362Z,0.30
2023-10-21T11:05:57.814Z,0.20
2023-10-21T11:08:26.041Z,0.40
2023-10-21T11:11:02.159Z,0.40
2023-10-21T11:13:29.228Z,0.20
2023-10-21T11:15:56.562Z,0.40
2023-10-21T11:18:23.427Z,0.50
2023-10-21T11:20:51.058Z,0.43
2023-10-21T11:23:22.158Z,0.35
2023-10-21T11:25:54.796Z,0.40
2023-10-21T11:28:22.133Z,0.30
2023-10-21T11:30:49.818Z,0.50
2023-10-21T11:33:20.089Z,0.40
2023-10-21T11:35:48.665Z,0.30
2023-10-21T11:38:19.674Z,0.30
2023-10-21T11:40:47.213Z,0.30
2023-10-21T11:43:17.608Z,0.52
2023-10-21T11:45:47.681Z,0.20
2023-10-21T11:48:17.840Z,0.40
2023-10-21T11:50:46.267Z,0.40
2023-10-21T11:53:13.895Z,0.50
2023-10-21T11:55:52.856Z,0.43
2023-10-21T11:58:43.360Z,0.40
2023-10-21T12:01:29.548Z,0.25
2023-10-21T12:04:15.008Z,0.50
2023-10-21T12:07:00.444Z,0.28
2023-10-21T12:09:45.735Z,0.45
2023-10-21T12:12:32.015Z,0.40
2023-10-21T12:15:07.663Z,0.40
2023-10-21T12:17:43.184Z,0.22
2023-10-21T12:20:45.717Z,0.47
2023-10-21T12:23:48.015Z,0.30
2023-10-21T12:26:40.781Z,0.60
2023-10-21T12:29:26.012Z,0.63
2023-10-21T12:32:15.588Z,0.38
2023-10-21T12:34:48.836Z,0.40
2023-10-21T12:37:21.479Z,0.30
2023-10-21T12:39:49.381Z,0.30
2023-10-21T12:42:30.513Z,0.30
2023-10-21T12:45:00.323Z,0.50
2023-10-21T12:47:28.892Z,0.43
2023-10-21T12:49:58.378Z,0.45
2023-10-21T12:52:25.253Z,0.30
2023-10-21T12:54:53.157Z,0.40
2023-10-21T12:57:20.140Z,0.32
2023-10-21T12:59:47.775Z,0.40
2023-10-21T13:02:14.600Z,0.40
2023-10-21T13:04:44.189Z,0.40
2023-10-21T13:07:11.405Z,0.65
2023-10-21T13:09:41.718Z,0.35
2023-10-21T13:12:15.625Z,0.30
2023-10-21T13:14:42.811Z,0.32
2023-10-21T13:17:09.704Z,0.40
2023-10-21T13:19:36.535Z,0.50
2023-10-21T13:22:06.901Z,0.30
2023-10-21T13:24:36.239Z,0.40
2023-10-21T13:27:06.914Z,0.40
2023-10-21T13:29:34.289Z,0.63
2023-10-21T13:32:02.078Z,0.43
2023-10-21T13:34:28.953Z,0.50
2023-10-21T13:36:57.026Z,0.50
2023-10-21T13:39:24.500Z,0.63
2023-10-21T13:41:51.267Z,0.43
2023-10-21T13:44:18.274Z,0.40
2023-10-21T13:46:45.447Z,0.40
2023-10-21T13:49:15.451Z,0.60
2023-10-21T13:51:46.654Z,0.30
2023-10-21T13:54:15.029Z,0.40
2023-10-21T13:56:42.836Z,0.28
2023-10-21T13:59:16.980Z,0.40
2023-10-21T14:01:44.734Z,0.40
2023-10-21T14:04:13.799Z,0.40
2023-10-21T14:06:41.736Z,0.30
2023-10-21T14:09:15.357Z,0.30
2023-10-21T14:11:42.423Z,0.32
2023-10-21T14:14:09.373Z,0.40
2023-10-21T14:16:36.217Z,0.30
2023-10-21T14:19:04.253Z,0.45
2023-10-21T14:21:31.169Z,0.60
2023-10-21T14:23:57.919Z,0.32
2023-10-21T14:26:24.896Z,0.47
2023-10-21T14:28:51.704Z,0.40
2023-10-21T14:31:27.872Z,0.40
2023-10-21T14:33:54.800Z,0.30
2023-10-21T14:36:21.553Z,0.30
2023-10-21T14:38:48.303Z,0.30
2023-10-21T14:41:15.164Z,0.50
2023-10-21T14:43:43.453Z,0.70
2023-10-21T14:46:10.425Z,1.42
2023-10-21T14:48:37.455Z,3.03
2023-10-21T14:51:04.542Z,1.60
2023-10-21T14:53:31.563Z,1.38
2023-10-21T14:55:59.168Z,1.05
2023-10-21T14:58:26.723Z,1.38
2023-10-21T15:00:54.441Z,0.70
2023-10-21T15:03:23.430Z,0.90
2023-10-21T15:05:51.846Z,1.15
2023-10-21T15:08:25.044Z,0.90
2023-10-21T15:13:25.027Z,1.05
2023-10-21T15:16:03.100Z,1.40
2023-10-21T15:18:31.847Z,1.17
2023-10-21T15:21:08.585Z,1.70
2023-10-21T15:23:39.071Z,1.75
2023-10-21T15:26:16.058Z,2.05
2023-10-21T15:28:42.911Z,1.80
2023-10-21T15:31:11.036Z,1.80
2023-10-21T15:33:37.852Z,1.70
2023-10-21T15:36:04.857Z,1.90
2023-10-21T15:38:31.515Z,1.67
2023-10-21T15:40:58.531Z,2.00
2023-10-21T15:43:25.369Z,2.15
2023-10-21T15:45:59.255Z,1.77
2023-10-21T15:48:26.196Z,1.77
2023-10-21T15:50:52.914Z,1.73
2023-10-21T15:53:19.630Z,2.03
2023-10-21T15:55:46.536Z,2.75
2023-10-21T15:58:13.216Z,2.83
2023-10-21T16:00:40.015Z,2.38
2023-10-21T16:03:06.881Z,2.60
2023-10-21T16:05:35.667Z,2.78
2023-10-21T16:08:02.363Z,2.33
2023-10-21T16:10:29.036Z,2.97
2023-10-21T16:12:57.696Z,3.20
2023-10-21T16:15:24.507Z,2.83
2023-10-21T16:17:51.263Z,3.47
2023-10-21T16:20:19.700Z,4.32
2023-10-21T16:22:48.873Z,6.70
2023-10-21T16:25:16.028Z,5.82
2023-10-21T16:27:42.925Z,5.65
2023-10-21T16:30:10.033Z,6.22
2023-10-21T16:32:36.716Z,5.53
2023-10-21T16:35:03.521Z,4.43
2023-10-21T16:37:30.309Z,5.00
2023-10-21T16:39:57.560Z,5.93
2023-10-21T16:42:24.954Z,4.75
2023-10-21T16:44:52.740Z,4.07
2023-10-21T16:47:19.433Z,5.55
2023-10-21T16:49:46.146Z,4.82
2023-10-21T16:52:12.908Z,5.03
2023-10-21T16:54:41.973Z,4.00
2023-10-21T16:57:10.889Z,3.60
2023-10-21T16:59:38.246Z,3.72
2023-10-21T17:02:05.241Z,4.70
2023-10-21T17:04:32.250Z,5.70
2023-10-21T17:06:59.172Z,4.25
2023-10-21T17:09:25.949Z,3.97
2023-10-21T17:11:53.007Z,3.38
2023-10-21T17:14:19.845Z,3.78
2023-10-21T17:16:46.675Z,5.60
2023-10-21T17:19:13.531Z,4.85
2023-10-21T17:21:40.360Z,4.68
2023-10-21T17:24:07.868Z,7.32
2023-10-21T17:26:34.576Z,7.10
2023-10-21T17:29:01.347Z,5.78
2023-10-21T17:31:28.198Z,4.22
2023-10-21T17:33:55.117Z,3.42
2023-10-21T17:36:21.949Z,3.33
2023-10-21T17:38:48.738Z,4.13
2023-10-21T17:41:15.535Z,4.22
2023-10-21T17:43:42.225Z,3.90
2023-10-21T17:46:08.975Z,4.00
2023-10-21T17:48:35.692Z,3.80
2023-10-21T17:51:02.464Z,4.40
2023-10-21T17:53:29.313Z,3.90
2023-10-21T17:55:56.353Z,4.07
2023-10-21T17:58:23.320Z,4.95
2023-10-21T18:00:50.164Z,5.30
2023-10-21T18:03:17.082Z,4.70
2023-10-21T18:05:45.183Z,4.20
2023-10-21T18:08:11.925Z,5.15
2023-10-21T18:10:38.643Z,4.20
2023-10-21T18:13:08.308Z,4.38
2023-10-21T18:15:35.173Z,4.50
2023-10-21T18:18:03.679Z,4.60
2023-10-21T18:20:30.715Z,4.45
2023-10-21T18:22:58.750Z,4.75
2023-10-21T18:25:25.880Z,4.10
2023-10-21T18:27:56.001Z,2.92
2023-10-21T18:30:23.891Z,2.80
2023-10-21T18:32:50.717Z,4.53
2023-10-21T18:35:17.488Z,4.78
2023-10-21T18:37:44.213Z,4.30
2023-10-21T18:40:11.297Z,5.00
2023-10-21T18:42:38.042Z,5.32
2023-10-21T18:45:06.317Z,5.03
2023-10-21T18:47:33.904Z,6.57
2023-10-21T18:50:00.767Z,5.45
2023-10-21T18:52:27.588Z,5.38
2023-10-21T18:54:54.405Z,4.45
2023-10-21T18:57:21.411Z,4.25
2023-10-21T18:59:48.550Z,4.45
2023-10-21T19:02:19.833Z,4.03
2023-10-21T19:04:46.785Z,2.97
2023-10-21T19:07:13.934Z,3.10
2023-10-21T19:09:40.819Z,11.70
2023-10-21T19:12:07.866Z,8.48
2023-10-21T19:14:34.778Z,24.48
2023-10-21T19:17:01.762Z,4.32
2023-10-21T19:19:31.563Z,3.00
2023-10-21T19:21:59.396Z,3.35
2023-10-21T19:24:26.665Z,3.67
2023-10-21T19:26:53.364Z,4.28
2023-10-21T19:29:20.168Z,6.30
2023-10-21T19:31:47.797Z,9.90
2023-10-21T19:34:14.638Z,6.43
2023-10-21T19:36:41.729Z,5.93
2023-10-21T19:39:08.476Z,5.40
2023-10-21T19:41:35.253Z,4.45
2023-10-21T19:44:14.339Z,9.55
2023-10-21T19:46:49.046Z,4.78
2023-10-21T19:49:19.912Z,5.10
2023-10-21T19:51:47.294Z,4.82
2023-10-21T19:54:14.885Z,4.15
2023-10-21T19:56:42.073Z,4.60
2023-10-21T19:59:09.067Z,4.40
2023-10-21T20:01:35.953Z,4.57
2023-10-21T20:04:03.168Z,4.82
2023-10-21T20:06:31.134Z,5.55
2023-10-21T20:08:57.929Z,5.32
2023-10-21T20:11:24.906Z,5.38
2023-10-21T20:13:52.083Z,5.28
2023-10-21T20:16:19.753Z,5.45
2023-10-21T20:18:46.754Z,5.25
2023-10-21T20:21:14.038Z,5.30
2023-10-21T20:23:41.069Z,5.50
2023-10-21T20:26:12.826Z,6.47
2023-10-21T20:28:40.803Z,6.35
2023-10-21T20:31:08.807Z,6.63
2023-10-21T20:33:37.035Z,6.40
2023-10-21T20:36:05.900Z,6.50
2023-10-21T20:38:33.471Z,6.03
2023-10-21T20:41:11.228Z,6.18
2023-10-21T20:43:39.359Z,5.97
2023-10-21T20:46:07.261Z,6.03
2023-10-21T20:48:34.647Z,6.70
2023-10-21T20:51:01.698Z,5.88
2023-10-21T20:53:28.493Z,5.07
2023-10-21T20:55:55.336Z,5.15
2023-10-21T20:58:22.140Z,7.70
2023-10-21T21:00:49.044Z,13.45
2023-10-21T21:03:16.039Z,12.32
2023-10-21T21:05:42.798Z,8.73
2023-10-21T21:08:09.938Z,7.60
2023-10-21T21:10:37.774Z,8.25
2023-10-21T21:13:04.658Z,7.07
2023-10-21T21:15:31.825Z,9.02
2023-10-21T21:17:58.637Z,7.78
2023-10-21T21:20:25.444Z,7.50
2023-10-21T21:22:52.538Z,7.30
2023-10-21T21:25:20.488Z,6.70
2023-10-21T21:27:50.745Z,6.68
2023-10-21T21:30:18.114Z,6.82
2023-10-21T21:32:45.566Z,6.68
2023-10-21T21:35:12.824Z,6.25
2023-10-21T21:37:39.738Z,6.30
2023-10-21T21:40:07.579Z,8.55
2023-10-21T21:42:35.020Z,5.80
2023-10-21T21:45:02.407Z,4.85
2023-10-21T21:47:29.650Z,5.03
2023-10-21T21:49:56.521Z,5.50
2023-10-21T21:52:23.196Z,5.15
2023-10-21T21:54:49.925Z,5.88
2023-10-21T21:57:16.629Z,5.25
2023-10-21T21:59:47.265Z,6.45
2023-10-21T22:02:15.131Z,6.10
2023-10-21T22:04:43.205Z,6.25
2023-10-21T22:07:13.242Z,7.53
2023-10-21T22:09:41.329Z,8.80
2023-10-21T22:12:10.058Z,7.65
2023-10-21T22:14:37.417Z,7.78
2023-10-21T22:17:05.424Z,7.03
2023-10-21T22:19:33.380Z,7.70
2023-10-21T22:22:00.323Z,7.70
2023-10-21T22:24:27.097Z,9.35
2023-10-21T22:26:55.960Z,8.10
2023-10-21T22:29:27.284Z,7.22
2023-10-21T22:31:54.530Z,7.88
2023-10-21T22:34:21.947Z,8.90
2023-10-21T22:36:48.763Z,9.25
2023-10-21T22:39:18.490Z,14.13
2023-10-21T22:41:46.497Z,13.80
2023-10-21T22:44:13.702Z,9.55
2023-10-21T22:46:41.693Z,9.55
2023-10-21T22:49:11.163Z,10.93
2023-10-21T22:51:40.082Z,13.20
2023-10-21T22:54:11.316Z,11.50
2023-10-21T22:56:41.537Z,9.52
2023-10-21T22:59:08.429Z,11.00
2023-10-21T23:01:35.515Z,11.07
2023-10-21T23:04:02.359Z,10.15
2023-10-21T23:06:29.781Z,10.85
2023-10-21T23:08:56.870Z,9.60
2023-10-21T23:11:23.704Z,9.45
2023-10-21T23:13:50.491Z,9.90
2023-10-21T23:16:21.171Z,8.57
2023-10-21T23:18:48.478Z,8.57
2023-10-21T23:21:15.747Z,9.00
2023-10-21T23:23:42.757Z,9.00
2023-10-21T23:26:12.148Z,9.27
2023-10-21T23:28:40.104Z,8.57
